Time;durP1;ratioP1;P1;durP2;ratioP2;P2;SDS_P1;SDS_P2;PMS_P1;PMS_P2;Temp;Humidity;BMP_temperature;BMP_pressure;BME280_temperature;BME280_humidity;BME280_pressure;Samples;Min_cycle;Max_cycle;Signal;HPM_P1;HPM_P2
2023/01/04 00:03:02;;;;;;;12.65;8.15;;;;;;;4.12;85.92;101126.53;1720772;83;21231;-56
2023/01/04 00:06:12;;;;;;;11.33;8.03;;;;;;;4.09;85.88;101135.73;1720658;83;21227;-57
2023/01/04 00:09:18;;;;;;;15.72;8.58;;;;;;;4.05;85.87;101138.80;1672020;85;21231;-57
2023/01/04 00:12:25;;;;;;;15.15;8.75;;;;;;;3.98;85.84;101143.81;1688069;85;21240;-56
2023/01/04 00:15:31;;;;;;;12.90;8.78;;;;;;;3.93;85.86;101147.34;1720783;83;21203;-58
2023/01/04 00:18:41;;;;;;;14.33;9.58;;;;;;;3.90;85.83;101145.38;1720120;83;21215;-56
2023/01/04 00:21:48;;;;;;;14.98;9.18;;;;;;;3.85;85.80;101143.02;1720724;83;21287;-56
2023/01/04 00:24:54;;;;;;;14.23;9.90;;;;;;;3.83;85.81;101149.03;1720711;83;21219;-57
2023/01/04 00:28:02;;;;;;;14.30;9.58;;;;;;;3.79;85.80;101148.87;1720909;83;21216;-57
2023/01/04 00:31:15;;;;;;;14.45;9.35;;;;;;;3.76;85.78;101148.27;1720677;83;21219;-57
2023/01/04 00:34:23;;;;;;;15.13;9.70;;;;;;;3.72;85.76;101148.97;1688168;83;21409;-57
2023/01/04 00:37:29;;;;;;;12.58;8.93;;;;;;;3.69;85.76;101149.20;1688186;85;21287;-57
2023/01/04 00:40:35;;;;;;;16.48;9.18;;;;;;;3.66;85.76;101150.78;1688283;85;21227;-56
2023/01/04 00:43:43;;;;;;;15.35;9.10;;;;;;;3.62;85.72;101145.20;1688100;85;21264;-56
2023/01/04 00:46:50;;;;;;;15.55;9.35;;;;;;;3.59;85.73;101154.03;1688175;85;21252;-58
2023/01/04 00:49:56;;;;;;;11.70;8.63;;;;;;;3.54;85.70;101144.03;1720866;83;21247;-56
2023/01/04 00:53:02;;;;;;;15.45;9.35;;;;;;;3.49;85.69;101141.66;1717846;83;21275;-56
2023/01/04 00:56:07;;;;;;;13.40;9.03;;;;;;;3.46;85.72;101138.31;1688079;85;21328;-56
2023/01/04 00:59:13;;;;;;;13.98;8.43;;;;;;;3.44;85.71;101135.72;1660947;86;21240;-57
2023/01/04 01:02:21;;;;;;;11.55;8.48;;;;;;;3.40;85.70;101135.58;1683765;85;21266;-57
2023/01/04 01:05:28;;;;;;;15.80;9.45;;;;;;;3.38;85.69;101138.04;1681320;85;21285;-56
2023/01/04 01:08:36;;;;;;;14.00;8.43;;;;;;;3.34;85.71;101141.45;1681025;85;21237;-56
2023/01/04 01:11:42;;;;;;;15.00;8.35;;;;;;;3.29;85.71;101135.50;1679791;85;21341;-56
2023/01/04 01:14:48;;;;;;;12.93;8.33;;;;;;;3.28;85.75;101134.27;1680896;85;21202;-56
2023/01/04 01:17:57;;;;;;;14.47;7.97;;;;;;;3.25;85.74;101131.27;1680833;85;21278;-56
2023/01/04 01:21:02;;;;;;;12.45;7.78;;;;;;;3.23;85.75;101137.30;1681394;85;21273;-57
2023/01/04 01:24:12;;;;;;;10.88;7.20;;;;;;;3.23;85.80;101136.43;1681580;85;21225;-57
2023/01/04 01:27:17;;;;;;;11.60;7.65;;;;;;;3.22;85.78;101143.67;1665087;85;21646;-57
2023/01/04 01:30:24;;;;;;;14.53;7.85;;;;;;;3.20;85.80;101140.23;1681656;85;21201;-57
2023/01/04 01:33:30;;;;;;;10.72;7.22;;;;;;;3.19;85.80;101141.19;1679811;85;21221;-56
2023/01/04 01:36:36;;;;;;;15.43;7.78;;;;;;;3.18;85.80;101138.59;1681490;85;21261;-57
2023/01/04 01:39:42;;;;;;;12.13;7.37;;;;;;;3.17;85.78;101139.58;1680242;85;21301;-56
2023/01/04 01:42:48;;;;;;;13.40;7.60;;;;;;;3.15;85.81;101141.05;1680765;85;21245;-56
2023/01/04 01:45:56;;;;;;;12.53;7.95;;;;;;;3.16;85.82;101131.95;1680940;85;21205;-56
2023/01/04 01:49:07;;;;;;;14.35;7.47;;;;;;;3.15;85.84;101127.52;1680819;85;21285;-56
2023/01/04 01:52:18;;;;;;;12.03;6.97;;;;;;;3.16;85.87;101129.24;1680755;85;21298;-55
2023/01/04 01:55:25;;;;;;;12.20;6.95;;;;;;;3.17;85.84;101130.12;1678657;85;21219;-56
2023/01/04 01:58:39;;;;;;;11.50;7.12;;;;;;;3.14;85.82;101124.42;1678534;83;21232;-57
2023/01/04 02:01:45;;;;;;;11.48;6.70;;;;;;;3.13;85.81;101126.76;1718252;83;21243;-55
2023/01/04 02:04:54;;;;;;;11.03;7.58;;;;;;;3.11;85.80;101121.94;1718493;83;21180;-55
2023/01/04 02:08:00;;;;;;;10.50;6.87;;;;;;;3.08;85.81;101128.45;1718396;83;21219;-57
2023/01/04 02:11:08;;;;;;;11.43;7.78;;;;;;;3.06;85.80;101123.62;1718243;83;21219;-56
2023/01/04 02:14:26;;;;;;;11.90;6.95;;;;;;;3.03;85.78;101125.20;1718429;83;21370;-57
2023/01/04 02:17:52;;;;;;;10.32;7.42;;;;;;;3.02;85.78;101118.55;1718336;83;21294;-56
2023/01/04 02:21:07;;;;;;;12.03;7.25;;;;;;;2.97;85.78;101125.65;1718312;83;21211;-57
2023/01/04 02:24:20;;;;;;;10.63;7.40;;;;;;;2.94;85.75;101129.05;1718298;83;21216;-57
2023/01/04 02:27:56;;;;;;;10.98;7.15;;;;;;;2.92;85.75;101126.94;1718339;83;21287;-57
2023/01/04 02:31:22;;;;;;;9.78;7.47;;;;;;;2.88;85.76;101120.03;1718373;83;21212;-57
2023/01/04 02:34:32;;;;;;;13.18;8.08;;;;;;;2.85;85.76;101126.50;1718641;83;21244;-56
2023/01/04 02:37:55;;;;;;;10.40;7.35;;;;;;;2.83;85.77;101124.42;1718464;83;21220;-57
2023/01/04 02:41:29;;;;;;;11.93;7.62;;;;;;;2.81;85.72;101124.13;1718512;83;21223;-55
2023/01/04 02:44:54;;;;;;;12.40;7.60;;;;;;;2.80;85.77;101127.83;1718533;83;21188;-56
2023/01/04 02:51:42;;;;;;;11.05;7.28;;;;;;;2.79;85.82;101120.70;1718518;83;21243;-56
2023/01/04 02:54:48;;;;;;;9.90;7.67;;;;;;;2.78;85.82;101124.35;1715400;83;21207;-57
2023/01/04 02:58:15;;;;;;;10.78;7.15;;;;;;;2.77;85.82;101122.63;1716143;83;21199;-57
2023/01/04 03:09:20;;;;;;;13.60;8.73;;;;;;;2.73;85.88;101118.41;1707178;83;21204;-56
2023/01/04 03:12:34;;;;;;;13.65;8.20;;;;;;;2.72;85.89;101124.79;1716135;83;21768;-57
2023/01/04 03:15:42;;;;;;;16.17;8.93;;;;;;;2.71;85.87;101119.02;1683330;84;21204;-57
2023/01/04 03:18:55;;;;;;;12.65;7.85;;;;;;;2.69;85.80;101120.95;1683565;85;21231;-57
2023/01/04 03:22:00;;;;;;;11.57;7.55;;;;;;;2.68;85.78;101130.05;1683530;85;21903;-56
2023/01/04 03:35:52;;;;;;;15.45;8.60;;;;;;;2.60;85.71;101122.97;1715938;83;21219;-56
2023/01/04 03:50:18;;;;;;;14.35;8.28;;;;;;;2.50;85.67;101139.43;1683504;85;21638;-56
2023/01/04 03:53:24;;;;;;;13.65;8.98;;;;;;;2.49;85.70;101130.95;1683510;85;21243;-57
2023/01/04 03:56:32;;;;;;;12.50;7.95;;;;;;;2.49;85.70;101134.50;1684602;81;21231;-57
2023/01/04 03:59:39;;;;;;;13.83;8.98;;;;;;;2.48;85.67;101138.66;1658356;86;21275;-57
2023/01/04 04:02:49;;;;;;;11.95;7.85;;;;;;;2.45;85.65;101136.17;1701693;83;21203;-57
2023/01/04 04:09:18;;;;;;;13.32;8.75;;;;;;;2.42;85.66;101144.50;1718603;83;21216;-57
2023/01/04 04:12:23;;;;;;;14.38;8.45;;;;;;;2.41;85.65;101142.77;1718437;83;21302;-57
2023/01/04 04:15:29;;;;;;;14.53;8.73;;;;;;;2.39;85.66;101144.23;1718386;83;21212;-57
2023/01/04 04:18:34;;;;;;;13.18;8.78;;;;;;;2.38;85.68;101146.53;1718497;83;21297;-56
2023/01/04 04:21:41;;;;;;;13.95;9.35;;;;;;;2.36;85.67;101149.81;1717661;83;21303;-55
2023/01/04 04:24:47;;;;;;;13.25;9.03;;;;;;;2.35;85.67;101147.23;1718392;83;21235;-56
2023/01/04 04:27:53;;;;;;;13.32;8.85;;;;;;;2.35;85.64;101147.23;1718378;83;21835;-56
2023/01/04 04:30:59;;;;;;;14.85;8.93;;;;;;;2.32;85.64;101146.09;1718339;83;21244;-57
2023/01/04 04:34:05;;;;;;;13.83;8.25;;;;;;;2.32;85.63;101152.84;1718267;83;21300;-55
2023/01/04 04:37:11;;;;;;;16.15;8.88;;;;;;;2.30;85.61;101154.80;1724243;82;21236;-57
2023/01/04 04:43:35;;;;;;;12.85;8.13;;;;;;;2.26;85.61;101161.37;1707408;83;21251;-57
2023/01/04 04:46:41;;;;;;;14.58;8.55;;;;;;;2.23;85.56;101157.53;1728797;82;21276;-57
2023/01/04 04:49:46;;;;;;;14.40;8.50;;;;;;;2.20;85.52;101159.09;1746832;82;21331;-56
2023/01/04 04:52:54;;;;;;;11.97;8.15;;;;;;;2.16;85.54;101149.45;1743064;82;21225;-57
2023/01/04 04:56:00;;;;;;;14.43;8.63;;;;;;;2.14;85.51;101148.20;1736998;82;21815;-57
2023/01/04 04:59:06;;;;;;;13.30;8.45;;;;;;;2.13;85.52;101146.96;1705086;84;21216;-58
2023/01/04 05:02:12;;;;;;;12.78;8.20;;;;;;;2.10;85.48;101152.57;1704757;84;21212;-56
2023/01/04 05:05:11;;;;;;;10.95;8.10;;;;;;;2.06;85.45;101151.06;1704814;84;21268;-56
2023/01/04 05:08:05;;;;;;;13.95;8.53;;;;;;;2.03;85.43;101152.11;1704587;83;21219;-57
2023/01/04 05:10:52;;;;;;;16.23;8.53;;;;;;;2.03;85.42;101163.42;1704119;84;21565;-57
2023/01/04 05:13:45;;;;;;;10.48;8.03;;;;;;;2.00;85.40;101158.23;1704382;83;21724;-56
2023/01/04 05:16:51;;;;;;;14.87;9.65;;;;;;;1.96;85.37;101169.70;1704087;84;21223;-57
2023/01/04 05:19:57;;;;;;;12.80;8.88;;;;;;;1.95;85.39;101160.36;1704259;84;21203;-57
2023/01/04 05:23:03;;;;;;;14.35;8.78;;;;;;;1.92;85.38;101167.32;1704306;84;21223;-57
2023/01/04 05:26:08;;;;;;;14.98;9.10;;;;;;;1.89;85.36;101156.73;1704359;84;21184;-55
2023/01/04 05:30:49;;;;;;;19.92;9.30;;;;;;;1.87;85.35;101162.70;1704827;84;21204;-55
2023/01/04 05:32:20;;;;;;;16.73;9.58;;;;;;;1.84;85.33;101161.06;1704670;84;21239;-55
2023/01/04 05:35:25;;;;;;;16.85;9.00;;;;;;;1.79;85.32;101163.22;1706633;82;21243;-57
2023/01/04 05:38:32;;;;;;;14.60;8.98;;;;;;;1.77;85.31;101161.58;1704763;84;22013;-57
2023/01/04 05:45:02;;;;;;;23.07;12.68;;;;;;;1.74;85.36;101165.83;1705261;84;21460;-57
2023/01/04 05:48:08;;;;;;;15.88;9.30;;;;;;;1.75;85.34;101164.84;1705378;84;21228;-57
2023/01/04 05:51:13;;;;;;;12.28;8.15;;;;;;;1.74;85.35;101165.83;1705256;84;21196;-56
2023/01/04 05:54:19;;;;;;;12.00;7.72;;;;;;;1.74;85.36;101161.78;1703016;84;21224;-57
2023/01/04 05:57:25;;;;;;;14.13;8.10;;;;;;;1.74;85.37;101163.13;1696471;83;21287;-57
2023/01/04 06:00:34;;;;;;;14.63;9.20;;;;;;;1.73;85.38;101166.30;1709198;83;21227;-58
2023/01/04 06:03:41;;;;;;;15.53;8.45;;;;;;;1.74;85.39;101165.36;1710659;81;21228;-56
2023/01/04 06:06:48;;;;;;;15.48;8.08;;;;;;;1.75;85.40;101164.38;1722958;82;21284;-58
2023/01/04 06:09:54;;;;;;;13.13;8.33;;;;;;;1.76;85.40;101167.44;1740544;82;21603;-57
2023/01/04 06:13:00;;;;;;;14.40;9.03;;;;;;;1.77;85.40;101169.20;1738728;82;21236;-57
2023/01/04 06:16:06;;;;;;;13.25;8.20;;;;;;;1.80;85.40;101170.34;1738034;82;21812;-56
2023/01/04 06:19:12;;;;;;;14.63;8.18;;;;;;;1.82;85.36;101180.56;1737939;82;21208;-57
2023/01/04 06:22:18;;;;;;;14.50;8.63;;;;;;;1.85;85.38;101180.83;1733040;81;21200;-56
2023/01/04 06:25:28;;;;;;;16.87;10.05;;;;;;;1.87;85.41;101181.60;1724799;82;21356;-56
2023/01/04 06:28:35;;;;;;;18.00;9.43;;;;;;;1.90;85.42;101184.97;1682813;85;21284;-57
2023/01/04 06:31:42;;;;;;;13.90;7.58;;;;;;;1.93;85.40;101183.89;1695800;83;21267;-56
2023/01/04 06:34:48;;;;;;;15.18;8.28;;;;;;;1.96;85.34;101201.23;1716919;83;21211;-57
2023/01/04 06:37:53;;;;;;;14.43;7.92;;;;;;;1.97;85.31;101197.08;1716805;83;21631;-57
2023/01/04 06:41:01;;;;;;;9.80;6.85;;;;;;;2.00;85.34;101190.63;1717129;83;21212;-57
2023/01/04 06:44:07;;;;;;;11.15;7.53;;;;;;;2.06;85.36;101198.31;1717640;83;21764;-56
2023/01/04 06:47:13;;;;;;;10.43;6.67;;;;;;;2.11;85.34;101197.53;1717447;81;21414;-56
2023/01/04 06:50:19;;;;;;;8.70;6.50;;;;;;;2.14;85.33;101200.02;1717522;82;21233;-56
2023/01/04 06:53:25;;;;;;;10.32;5.80;;;;;;;2.18;85.32;101201.53;1688902;82;21783;-57
2023/01/04 06:56:32;;;;;;;12.10;6.05;;;;;;;2.24;85.35;101194.36;1684839;85;21311;-56
2023/01/04 06:59:37;;;;;;;12.95;6.42;;;;;;;2.30;85.37;101201.57;1681994;83;21267;-56
2023/01/04 07:02:43;;;;;;;8.25;5.87;;;;;;;2.34;85.34;101202.23;1677246;85;21244;-57
2023/01/04 07:05:53;;;;;;;8.58;5.60;;;;;;;2.41;85.32;101206.27;1658506;84;21198;-56
2023/01/04 07:08:59;;;;;;;8.80;5.65;;;;;;;2.45;85.34;101203.72;1684359;84;21248;-57
2023/01/04 07:12:04;;;;;;;9.30;5.10;;;;;;;2.49;85.32;101209.31;1654745;85;21252;-57
2023/01/04 07:15:10;;;;;;;7.72;5.25;;;;;;;2.53;85.27;101214.88;1666501;84;21248;-57
2023/01/04 07:18:18;;;;;;;8.43;5.40;;;;;;;2.57;85.26;101215.91;1632300;88;21315;-58
2023/01/04 07:21:25;;;;;;;9.38;5.87;;;;;;;2.60;85.22;101212.98;1667298;84;21204;-57
2023/01/04 07:24:32;;;;;;;7.53;4.97;;;;;;;2.63;85.20;101219.53;1661608;85;21207;-58
2023/01/04 07:27:38;;;;;;;7.00;4.87;;;;;;;2.69;85.20;101219.14;1656800;85;21771;-58
2023/01/04 07:30:46;;;;;;;32.88;17.65;;;;;;;2.74;85.19;101217.47;1685937;83;21220;-55
2023/01/04 07:33:56;;;;;;;9.38;6.58;;;;;;;2.77;85.19;101219.48;1690615;84;21237;-56
2023/01/04 07:37:02;;;;;;;10.45;6.80;;;;;;;2.84;85.19;101217.19;1658438;85;21244;-56
2023/01/04 07:40:08;;;;;;;7.97;6.20;;;;;;;2.91;85.18;101221.21;1664123;85;21248;-56
2023/01/04 07:43:13;;;;;;;7.62;5.78;;;;;;;2.94;85.15;101223.70;1666014;84;21252;-57
2023/01/04 07:46:22;;;;;;;9.13;6.08;;;;;;;3.00;85.10;101221.91;1678873;84;21259;-58
2023/01/04 07:49:29;;;;;;;9.18;5.72;;;;;;;3.10;85.10;101227.06;1679221;85;21241;-57
2023/01/04 07:52:36;;;;;;;10.13;5.72;;;;;;;3.18;85.07;101224.69;1680608;84;21807;-57
2023/01/04 07:55:43;;;;;;;7.70;5.58;;;;;;;3.27;85.03;101230.78;1681113;85;21241;-56
2023/01/04 07:58:55;;;;;;;9.95;6.10;;;;;;;3.34;84.96;101231.22;1684901;83;21270;-57
2023/01/04 08:01:59;;;;;;;8.88;5.50;;;;;;;3.39;84.96;101231.28;1673884;83;21254;-57
2023/01/04 08:05:05;;;;;;;8.40;4.85;;;;;;;3.45;84.99;101228.13;1673498;85;21244;-57
2023/01/04 08:08:13;;;;;;;6.75;4.58;;;;;;;3.49;84.93;101225.56;1686216;85;21220;-57
2023/01/04 08:11:23;;;;;;;11.40;5.60;;;;;;;3.50;84.86;101237.27;1684212;85;21272;-56
2023/01/04 08:14:30;;;;;;;7.20;4.60;;;;;;;3.50;84.83;101240.85;1651592;85;21308;-57
2023/01/04 08:17:38;;;;;;;6.37;4.17;;;;;;;3.54;84.88;101232.88;1682150;83;21277;-55
2023/01/04 08:20:46;;;;;;;4.95;3.72;;;;;;;3.63;84.91;101238.13;1709698;83;21717;-57
2023/01/04 08:23:53;;;;;;;6.58;4.45;;;;;;;3.70;84.88;101234.85;1702157;84;21972;-60
2023/01/04 08:27:01;;;;;;;6.92;4.97;;;;;;;3.76;84.81;101230.34;1693658;83;21244;-58
2023/01/04 08:30:07;;;;;;;6.15;4.37;;;;;;;3.82;84.82;101235.30;1675944;85;21220;-56
2023/01/04 08:33:23;;;;;;;5.90;4.53;;;;;;;3.92;84.83;101239.55;1666136;85;21259;-56
2023/01/04 08:36:38;;;;;;;6.28;4.30;;;;;;;4.03;84.84;101231.02;1674581;84;21252;-57
2023/01/04 08:39:44;;;;;;;6.87;4.75;;;;;;;4.15;84.84;101236.89;1701821;83;21239;-57
2023/01/04 08:42:49;;;;;;;6.17;4.10;;;;;;;4.29;84.83;101245.34;1670315;84;21252;-57
2023/01/04 08:45:56;;;;;;;6.80;4.30;;;;;;;4.36;84.73;101243.39;1669729;85;22200;-57
2023/01/04 08:49:01;;;;;;;8.03;4.60;;;;;;;4.40;84.61;101235.42;1686892;83;21322;-56
2023/01/04 08:52:08;;;;;;;8.68;5.10;;;;;;;4.45;84.59;101231.88;1674315;84;21284;-56
2023/01/04 08:55:15;;;;;;;6.90;4.28;;;;;;;4.53;84.58;101232.65;1675470;84;21546;-57
2023/01/04 08:58:22;;;;;;;4.65;4.00;;;;;;;4.63;84.54;101239.08;1681137;84;21228;-57
2023/01/04 09:01:28;;;;;;;7.85;5.12;;;;;;;4.68;84.44;101231.45;1677287;82;21590;-57
2023/01/04 09:04:35;;;;;;;7.28;4.70;;;;;;;4.77;84.44;101242.10;1690504;84;21219;-56
2023/01/04 09:07:40;;;;;;;5.75;4.20;;;;;;;4.82;84.37;101238.55;1738361;82;21765;-57
2023/01/04 09:10:46;;;;;;;7.17;4.40;;;;;;;4.88;84.33;101244.37;1744482;82;21208;-57
2023/01/04 09:13:52;;;;;;;7.28;4.80;;;;;;;4.89;84.24;101242.02;1744342;81;21725;-57
2023/01/04 09:17:00;;;;;;;8.15;4.65;;;;;;;4.91;84.16;101250.03;1738649;82;21286;-59
2023/01/04 09:20:07;;;;;;;10.98;5.58;;;;;;;4.95;84.14;101242.89;1723565;81;21267;-57
2023/01/04 09:23:14;;;;;;;8.55;4.58;;;;;;;5.01;84.08;101238.85;1719042;81;21232;-57
2023/01/04 09:26:25;;;;;;;11.88;7.28;;;;;;;5.05;84.02;101236.25;1730310;81;21224;-56
2023/01/04 09:29:31;;;;;;;8.98;4.95;;;;;;;5.06;83.97;101240.72;1689879;82;21802;-59
2023/01/04 09:32:39;;;;;;;5.72;4.28;;;;;;;5.04;83.90;101220.97;1733418;82;21196;-57
2023/01/04 09:35:40;;;;;;;6.87;4.87;;;;;;;5.04;83.85;101220.97;1720617;82;21223;-57
2023/01/04 09:38:47;;;;;;;5.80;4.47;;;;;;;5.05;83.79;101228.11;1717605;82;21279;-56
2023/01/04 09:42:04;;;;;;;8.15;4.62;;;;;;;5.01;83.70;101219.34;1718271;82;21737;-57
2023/01/04 09:45:26;;;;;;;7.10;4.75;;;;;;;5.02;83.71;101218.38;1694034;82;21671;-56
2023/01/04 09:48:35;;;;;;;5.78;4.40;;;;;;;5.06;83.76;101217.14;1688415;85;21212;-58
2023/01/04 09:51:43;;;;;;;7.72;4.17;;;;;;;5.10;83.75;101201.48;1722191;82;21203;-56
2023/01/04 09:55:03;;;;;;;8.50;5.10;;;;;;;5.20;83.85;101201.14;1684363;84;21284;-57
2023/01/04 09:58:24;;;;;;;8.08;4.17;;;;;;;5.27;83.83;101207.31;1716109;83;21401;-57
2023/01/04 10:01:38;;;;;;;6.40;4.03;;;;;;;5.33;83.80;101200.51;1719676;80;21642;-57
2023/01/04 10:04:56;;;;;;;5.37;3.45;;;;;;;5.34;83.71;101196.83;1699716;84;21222;-57
2023/01/04 10:08:02;;;;;;;6.47;3.10;;;;;;;5.34;83.66;101206.33;1701381;84;21783;-57
2023/01/04 10:11:32;;;;;;;8.33;3.55;;;;;;;5.33;83.54;101200.51;1669493;85;21222;-58
2023/01/04 10:14:51;;;;;;;5.62;3.60;;;;;;;5.31;83.48;101195.72;1659243;85;21218;-56
2023/01/04 10:18:08;;;;;;;4.90;2.75;;;;;;;5.33;83.52;101193.72;1666711;85;21318;-56
2023/01/04 10:21:31;;;;;;;5.08;3.50;;;;;;;5.36;83.45;101207.08;1700198;84;21761;-57
2023/01/04 10:25:01;;;;;;;4.97;3.10;;;;;;;5.36;83.47;101202.49;1654530;86;21204;-57
2023/01/04 10:28:38;;;;;;;4.37;3.08;;;;;;;5.36;83.40;101203.01;1654242;86;21255;-57
2023/01/04 10:31:47;;;;;;;5.60;3.33;;;;;;;5.35;83.39;101202.62;1655838;83;21671;-57
2023/01/04 10:34:54;;;;;;;5.35;3.35;;;;;;;5.34;83.34;101203.62;1683607;84;21224;-56
2023/01/04 10:38:08;;;;;;;7.58;3.60;;;;;;;5.33;83.33;101201.38;1681348;83;21290;-57
2023/01/04 10:41:20;;;;;;;8.13;3.20;;;;;;;5.31;83.30;101195.20;1680433;83;21769;-57
2023/01/04 10:45:05;;;;;;;4.60;3.30;;;;;;;5.33;83.31;101206.81;1685687;83;21598;-57
2023/01/04 10:48:21;;;;;;;4.67;3.20;;;;;;;5.34;83.31;101208.56;1691347;83;21230;-57
2023/01/04 10:51:42;;;;;;;5.62;2.80;;;;;;;5.34;83.23;101222.62;1667545;86;21294;-57
2023/01/04 10:55:07;;;;;;;5.03;2.70;;;;;;;5.30;83.16;101237.41;1666888;86;21214;-58
2023/01/04 10:58:31;;;;;;;3.92;2.80;;;;;;;5.19;83.10;101220.63;1680716;83;21259;-57
2023/01/04 11:01:46;;;;;;;4.87;2.30;;;;;;;5.12;83.10;101223.95;1680016;84;21798;-58
2023/01/04 11:05:04;;;;;;;4.87;2.90;;;;;;;5.07;83.12;101224.31;1688511;81;21252;-58
2023/01/04 11:08:28;;;;;;;7.33;2.80;;;;;;;5.07;83.16;101212.10;1694596;82;21610;-57
2023/01/04 11:11:45;;;;;;;3.02;2.40;;;;;;;5.12;83.21;101215.81;1718091;83;21623;-57
2023/01/04 11:14:53;;;;;;;3.00;2.30;;;;;;;5.16;83.21;101207.30;1715996;82;21244;-57
2023/01/04 11:17:59;;;;;;;3.35;2.52;;;;;;;5.15;83.08;101216.44;1682667;83;21813;-57
2023/01/04 11:21:06;;;;;;;2.98;2.37;;;;;;;5.14;83.08;101215.20;1709910;81;21247;-57
2023/01/04 11:24:12;;;;;;;4.60;1.92;;;;;;;5.18;83.13;101212.60;1685235;83;21263;-57
2023/01/04 11:27:25;;;;;;;4.20;2.10;;;;;;;5.33;83.33;101224.94;1695302;83;21237;-57
2023/01/04 11:30:35;;;;;;;2.72;1.90;;;;;;;5.42;83.22;101229.66;1691249;82;21232;-57
2023/01/04 11:34:07;;;;;;;4.53;2.10;;;;;;;5.39;83.03;101223.13;1707971;84;21269;-56
2023/01/04 11:37:16;;;;;;;2.20;1.47;;;;;;;5.32;82.90;101211.89;1744355;82;21663;-59
2023/01/04 11:40:27;;;;;;;3.37;1.57;;;;;;;5.31;82.85;101217.44;1729773;82;21808;-58
2023/01/04 11:43:37;;;;;;;2.42;1.65;;;;;;;5.23;82.65;101215.82;1730880;82;22048;-57
2023/01/04 11:46:44;;;;;;;2.83;1.75;;;;;;;5.12;82.59;101222.08;1719543;83;21286;-57
2023/01/04 11:49:50;;;;;;;1.95;1.50;;;;;;;5.04;82.62;101214.19;1732310;82;21733;-57
2023/01/04 11:52:58;;;;;;;2.35;1.70;;;;;;;5.03;82.68;101207.89;1743889;82;21934;-58
2023/01/04 11:56:28;;;;;;;6.12;1.62;;;;;;;5.05;82.61;101214.06;1741355;81;21760;-59
2023/01/04 11:59:35;;;;;;;2.12;1.30;;;;;;;5.04;82.51;101210.99;1686728;83;21778;-59
2023/01/04 12:02:41;;;;;;;2.10;1.20;;;;;;;5.03;82.47;101220.09;1732855;82;21219;-57
2023/01/04 12:05:49;;;;;;;1.30;1.10;;;;;;;4.98;82.43;101216.03;1688959;83;21658;-58
2023/01/04 12:08:55;;;;;;;1.30;1.10;;;;;;;4.92;82.42;101213.77;1680083;85;21219;-57
2023/01/04 12:12:06;;;;;;;4.97;1.55;;;;;;;4.90;82.37;101222.55;1688428;85;21388;-58
2023/01/04 12:15:23;;;;;;;2.37;1.60;;;;;;;4.84;82.29;101205.36;1676078;84;21288;-58
2023/01/04 12:18:38;;;;;;;1.55;1.37;;;;;;;4.82;82.29;101215.49;1652636;86;21239;-57
2023/01/04 12:21:47;;;;;;;2.33;1.60;;;;;;;4.82;82.26;101219.56;1661308;84;21256;-58
2023/01/04 12:24:53;;;;;;;2.55;1.60;;;;;;;4.83;82.28;101223.99;1680716;85;21408;-57
2023/01/04 12:28:00;;;;;;;22.40;9.73;;;;;;;4.84;82.29;101214.86;1669343;85;21250;-58
2023/01/04 12:31:29;;;;;;;5.75;4.12;;;;;;;4.88;82.30;101219.08;1659172;84;22089;-57
2023/01/04 12:34:39;;;;;;;2.47;1.72;;;;;;;4.89;82.28;101218.08;1640812;85;22053;-57
2023/01/04 12:37:50;;;;;;;1.15;1.05;;;;;;;4.89;82.27;101209.46;1654849;86;21257;-58
2023/01/04 12:40:59;;;;;;;2.87;1.57;;;;;;;4.89;82.13;101237.07;1628361;87;21761;-55
2023/01/04 12:44:05;;;;;;;4.37;3.35;;;;;;;4.85;82.09;101221.55;1650186;84;21761;-58
2023/01/04 12:51:28;;;;;;;4.67;1.55;;;;;;;4.82;82.04;101224.47;1626312;88;21777;-62
2023/01/04 12:54:41;;;;;;;2.42;1.67;;;;;;;4.81;81.99;101215.97;1663980;84;21840;-58
2023/01/04 12:57:47;;;;;;;1.95;1.35;;;;;;;4.81;81.93;101230.89;1627323;87;21830;-58
2023/01/04 13:01:03;;;;;;;1.67;1.50;;;;;;;4.80;81.87;101233.72;1644867;85;21257;-58
2023/01/04 13:04:21;;;;;;;1.95;1.40;;;;;;;4.76;81.80;101230.89;1656860;85;21222;-59
2023/01/04 13:07:34;;;;;;;3.33;2.12;;;;;;;4.72;81.77;101240.23;1651307;85;21299;-58
2023/01/04 13:10:59;;;;;;;5.53;2.80;;;;;;;4.72;81.81;101242.94;1681425;83;21845;-57
2023/01/04 13:14:18;;;;;;;5.10;2.50;;;;;;;4.72;81.82;101247.88;1677875;81;21637;-53
2023/01/04 13:17:29;;;;;;;3.70;2.17;;;;;;;4.70;81.77;101257.09;1719807;81;21259;-53
2023/01/04 13:20:35;;;;;;;4.70;1.80;;;;;;;4.65;81.67;101234.92;1717221;81;21188;-52
2023/01/04 13:23:42;;;;;;;8.35;4.50;;;;;;;4.61;81.67;101246.48;1737571;81;21266;-52
2023/01/04 13:26:53;;;;;;;4.92;2.85;;;;;;;4.58;81.67;101243.50;1683504;84;21227;-53
2023/01/04 13:30:02;;;;;;;3.62;2.37;;;;;;;4.55;81.65;101249.67;1687443;82;21235;-52
2023/01/04 13:33:21;;;;;;;2.95;1.85;;;;;;;4.51;81.59;101237.31;1718070;82;21657;-52
2023/01/04 13:36:25;;;;;;;1.95;1.50;;;;;;;4.50;81.55;101247.28;1745038;82;21776;-52
2023/01/04 13:39:31;;;;;;;2.83;1.60;;;;;;;4.46;81.50;101242.21;1743871;82;21216;-52
2023/01/04 13:42:37;;;;;;;2.60;1.80;;;;;;;4.44;81.47;101250.46;1729115;81;21219;-53
2023/01/04 13:46:21;;;;;;;2.90;1.82;;;;;;;4.39;81.39;101255.36;1745299;82;21203;-52
2023/01/04 13:49:28;;;;;;;2.22;1.62;;;;;;;4.33;81.34;101255.83;1744945;82;21199;-52
2023/01/04 13:52:35;;;;;;;1.98;1.35;;;;;;;4.29;81.31;101261.12;1739482;82;21844;-53
2023/01/04 13:55:45;;;;;;;1.85;1.35;;;;;;;4.22;81.29;101253.05;1716490;82;21675;-54
2023/01/04 13:58:51;;;;;;;4.37;2.00;;;;;;;4.18;81.27;101261.05;1705544;81;21681;-53
2023/01/04 14:01:58;;;;;;;3.62;2.25;;;;;;;4.15;81.29;101263.12;1719057;82;21832;-53
2023/01/04 14:05:06;;;;;;;4.42;2.27;;;;;;;4.14;81.33;101260.01;1719671;82;21570;-52
2023/01/04 14:08:19;;;;;;;4.95;1.72;;;;;;;4.13;81.35;101255.10;1717870;83;21294;-52
2023/01/04 14:11:58;;;;;;;4.20;1.60;;;;;;;4.12;81.38;101253.35;1729614;82;21231;-52
2023/01/04 14:15:32;;;;;;;4.10;2.50;;;;;;;4.13;81.38;101259.16;1718813;83;21776;-51
2023/01/04 14:18:37;;;;;;;8.70;5.22;;;;;;;4.12;81.35;101258.77;1681403;85;21639;-52
2023/01/04 14:21:44;;;;;;;4.70;2.80;;;;;;;4.13;81.34;101266.42;1688378;83;21290;-52
2023/01/04 14:24:50;;;;;;;7.22;3.10;;;;;;;4.13;81.30;101274.55;1698934;82;21235;-52
2023/01/04 14:27:57;;;;;;;3.47;2.22;;;;;;;4.11;81.23;101280.08;1715948;83;21279;-53
2023/01/04 14:31:11;;;;;;;4.60;2.52;;;;;;;4.09;81.20;101272.55;1734157;82;21235;-53
2023/01/04 14:34:19;;;;;;;4.53;3.33;;;;;;;4.08;81.18;101278.08;1745304;82;21216;-53
2023/01/04 14:37:25;;;;;;;12.10;6.37;;;;;;;4.08;81.21;101277.60;1745244;81;21200;-53
2023/01/04 14:40:32;;;;;;;5.20;3.10;;;;;;;4.08;81.14;101268.59;1729193;81;21207;-53
2023/01/04 14:43:58;;;;;;;6.67;2.85;;;;;;;4.06;81.11;101271.42;1724347;81;21185;-54
2023/01/04 14:47:07;;;;;;;4.95;2.50;;;;;;;4.07;81.09;101273.17;1693572;83;21601;-53
2023/01/04 14:50:14;;;;;;;11.75;5.08;;;;;;;4.06;81.01;101280.06;1710685;83;21307;-52
2023/01/04 14:53:21;;;;;;;11.05;6.58;;;;;;;4.03;80.94;101272.13;1732720;81;21232;-53
2023/01/04 14:56:28;;;;;;;9.33;7.00;;;;;;;4.02;80.94;101276.70;1715809;82;21275;-54
2023/01/04 14:59:32;;;;;;;6.72;4.00;;;;;;;4.01;80.91;101287.66;1729408;81;21725;-52
2023/01/04 15:02:39;;;;;;;6.83;4.90;;;;;;;4.00;80.86;101298.97;1719311;81;21258;-52
2023/01/04 15:05:48;;;;;;;5.62;4.92;;;;;;;3.97;80.73;101278.88;1727816;81;21737;-53
2023/01/04 15:08:54;;;;;;;6.08;3.47;;;;;;;3.95;80.70;101282.18;1705658;82;21243;-52
2023/01/04 15:12:02;;;;;;;3.77;2.08;;;;;;;3.93;80.65;101280.58;1706402;82;21203;-53
2023/01/04 15:15:11;;;;;;;3.65;2.10;;;;;;;3.90;80.55;101277.58;1690748;84;22106;-53
2023/01/04 15:18:17;;;;;;;3.90;2.35;;;;;;;3.84;80.42;101274.45;1696994;83;21249;-54
2023/01/04 15:21:22;;;;;;;4.90;3.00;;;;;;;3.73;80.37;101275.23;1694858;84;21240;-53
2023/01/04 15:24:29;;;;;;;5.42;3.10;;;;;;;3.66;80.34;101281.22;1696697;83;21212;-53
2023/01/04 15:27:35;;;;;;;4.17;2.87;;;;;;;3.59;80.37;101275.37;1698045;83;21211;-52
2023/01/04 15:30:41;;;;;;;4.83;2.72;;;;;;;3.54;80.29;101284.78;1702925;83;21785;-52
2023/01/04 15:33:47;;;;;;;8.68;3.90;;;;;;;3.45;80.24;101284.97;1702166;84;21205;-54
2023/01/04 15:36:54;;;;;;;8.00;4.35;;;;;;;3.36;80.17;101289.69;1678763;84;21734;-52